sensor_id;sensor_type;location;lat;lon;timestamp;temperature;humidity
67890;DHT22;54685;52.082;5.426;2022-08-24T00:02:33;20.80;99.90
67890;DHT22;54685;52.082;5.426;2022-08-24T00:05:00;20.80;99.90
67890;DHT22;54685;52.082;5.426;2022-08-24T00:07:28;20.70;99.90
67890;DHT22;54685;52.082;5.426;2022-08-24T00:09:55;20.70;99.90
67890;DHT22;54685;52.082;5.426;2022-08-24T00:12:22;20.70;99.90
67890;DHT22;54685;52.082;5.426;2022-08-24T00:14:49;20.60;99.90
67890;DHT22;54685;52.082;5.426;2022-08-24T00:17:16;20.60;99.90
67890;DHT22;54685;52.082;5.426;2022-08-24T00:19:43;20.60;99.90
67890;DHT22;54685;52.082;5.426;2022-08-24T00:22:10;20.60;99.90
67890;DHT22;54685;52.082;5.426;2022-08-24T00:24:36;20.50;99.90
67890;DHT22;54685;52.082;5.426;2022-08-24T00:27:05;20.50;99.90
67890;DHT22;54685;52.082;5.426;2022-08-24T00:29:32;20.50;99.90
67890;DHT22;54685;52.082;5.426;2022-08-24T00:31:59;20.50;99.90
67890;DHT22;54685;52.082;5.426;2022-08-24T00:34:26;20.70;99.90
67890;DHT22;54685;52.082;5.426;2022-08-24T00:36:54;20.70;99.90
67890;DHT22;54685;52.082;5.426;2022-08-24T00:39:21;20.70;99.90
67890;DHT22;54685;52.082;5.426;2022-08-24T00:41:50;20.60;99.90
67890;DHT22;54685;52.082;5.426;2022-08-24T00:44:19;20.60;99.90
67890;DHT22;54685;52.082;5.426;2022-08-24T00:46:53;20.70;99.90
67890;DHT22;54685;52.082;5.426;2022-08-24T00:49:36;20.70;99.90
67890;DHT22;54685;52.082;5.426;2022-08-24T00:52:07;20.60;99.90
67890;DHT22;54685;52.082;5.426;2022-08-24T00:54:41;20.50;99.90
67890;DHT22;54685;52.082;5.426;2022-08-24T00:57:14;20.50;99.90
67890;DHT22;54685;52.082;5.426;2022-08-24T00:59:47;20.40;99.90
67890;DHT22;54685;52.082;5.426;2022-08-24T01:02:22;20.30;99.90
67890;DHT22;54685;52.082;5.426;2022-08-24T01:04:56;20.30;99.90
67890;DHT22;54685;52.082;5.426;2022-08-24T01:07:26;20.30;99.90
67890;DHT22;54685;52.082;5.426;2022-08-24T01:09:56;20.30;99.90
67890;DHT22;54685;52.082;5.426;2022-08-24T01:12:23;20.30;99.90
67890;DHT22;54685;52.082;5.426;2022-08-24T01:14:52;20.30;99.90
67890;DHT22;54685;52.082;5.426;2022-08-24T01:17:20;20.30;99.90
67890;DHT22;54685;52.082;5.426;2022-08-24T01:20:08;20.20;99.90
67890;DHT22;54685;52.082;5.426;2022-08-24T01:25:29;20.20;99.90
67890;DHT22;54685;52.082;5.426;2022-08-24T01:28:02;20.10;99.90
67890;DHT22;54685;52.082;5.426;2022-08-24T01:30:32;20.10;99.90
67890;DHT22;54685;52.082;5.426;2022-08-24T01:33:05;20.10;99.90
67890;DHT22;54685;52.082;5.426;2022-08-24T01:35:33;20.00;99.90
67890;DHT22;54685;52.082;5.426;2022-08-24T01:38:03;20.00;99.90
67890;DHT22;54685;52.082;5.426;2022-08-24T01:40:37;20.00;99.90
67890;DHT22;54685;52.082;5.426;2022-08-24T01:43:07;19.90;99.90
67890;DHT22;54685;52.082;5.426;2022-08-24T01:45:34;19.90;99.90
67890;DHT22;54685;52.082;5.426;2022-08-24T01:48:02;19.80;99.90
67890;DHT22;54685;52.082;5.426;2022-08-24T01:50:30;19.90;99.90
67890;DHT22;54685;52.082;5.426;2022-08-24T01:52:59;19.80;99.90
67890;DHT22;54685;52.082;5.426;2022-08-24T01:55:31;19.80;99.90
67890;DHT22;54685;52.082;5.426;2022-08-24T01:57:59;19.80;99.90
67890;DHT22;54685;52.082;5.426;2022-08-24T02:00:28;19.80;99.90
67890;DHT22;54685;52.082;5.426;2022-08-24T02:02:55;19.70;99.90
67890;DHT22;54685;52.082;5.426;2022-08-24T02:05:23;19.70;99.90
67890;DHT22;54685;52.082;5.426;2022-08-24T02:07:51;19.60;99.90
67890;DHT22;54685;52.082;5.426;2022-08-24T02:10:20;19.70;99.90
67890;DHT22;54685;52.082;5.426;2022-08-24T02:12:49;19.70;99.90
67890;DHT22;54685;52.082;5.426;2022-08-24T02:15:28;19.70;99.90
67890;DHT22;54685;52.082;5.426;2022-08-24T02:17:56;19.60;99.90
67890;DHT22;54685;52.082;5.426;2022-08-24T02:20:24;19.60;99.90
67890;DHT22;54685;52.082;5.426;2022-08-24T02:22:52;19.50;99.90
67890;DHT22;54685;52.082;5.426;2022-08-24T02:25:20;19.50;99.90
67890;DHT22;54685;52.082;5.426;2022-08-24T02:27:47;19.50;99.90
67890;DHT22;54685;52.082;5.426;2022-08-24T02:30:14;19.40;99.90
67890;DHT22;54685;52.082;5.426;2022-08-24T02:32:41;19.40;99.90
67890;DHT22;54685;52.082;5.426;2022-08-24T02:35:11;19.40;99.90
67890;DHT22;54685;52.082;5.426;2022-08-24T02:37:38;19.40;99.90
67890;DHT22;54685;52.082;5.426;2022-08-24T02:40:12;19.40;99.90
67890;DHT22;54685;52.082;5.426;2022-08-24T02:42:40;19.40;99.90
67890;DHT22;54685;52.082;5.426;2022-08-24T02:45:09;19.40;99.90
67890;DHT22;54685;52.082;5.426;2022-08-24T02:47:37;19.30;99.90
67890;DHT22;54685;52.082;5.426;2022-08-24T02:50:09;19.30;99.90
67890;DHT22;54685;52.082;5.426;2022-08-24T02:52:37;19.30;99.90
67890;DHT22;54685;52.082;5.426;2022-08-24T02:55:08;19.30;99.90
67890;DHT22;54685;52.082;5.426;2022-08-24T02:57:36;19.30;99.90
67890;DHT22;54685;52.082;5.426;2022-08-24T03:00:08;19.30;99.90
67890;DHT22;54685;52.082;5.426;2022-08-24T03:02:38;19.30;99.90
67890;DHT22;54685;52.082;5.426;2022-08-24T03:05:08;19.20;99.90
67890;DHT22;54685;52.082;5.426;2022-08-24T03:07:36;19.20;99.90
67890;DHT22;54685;52.082;5.426;2022-08-24T03:10:05;19.10;99.90
67890;DHT22;54685;52.082;5.426;2022-08-24T03:12:32;19.10;99.90
67890;DHT22;54685;52.082;5.426;2022-08-24T03:15:01;19.10;99.90
67890;DHT22;54685;52.082;5.426;2022-08-24T03:17:28;19.00;99.90
67890;DHT22;54685;52.082;5.426;2022-08-24T03:19:56;19.10;99.90
67890;DHT22;54685;52.082;5.426;2022-08-24T03:22:23;19.00;99.90
67890;DHT22;54685;52.082;5.426;2022-08-24T03:24:50;19.00;99.90
67890;DHT22;54685;52.082;5.426;2022-08-24T03:27:17;18.90;99.90
67890;DHT22;54685;52.082;5.426;2022-08-24T03:29:45;18.90;99.90
67890;DHT22;54685;52.082;5.426;2022-08-24T03:32:15;18.90;99.90
67890;DHT22;54685;52.082;5.426;2022-08-24T03:34:43;18.90;99.90
67890;DHT22;54685;52.082;5.426;2022-08-24T03:37:10;18.90;99.90
67890;DHT22;54685;52.082;5.426;2022-08-24T03:39:37;18.90;99.90
67890;DHT22;54685;52.082;5.426;2022-08-24T03:42:04;18.90;99.90
67890;DHT22;54685;52.082;5.426;2022-08-24T03:44:31;18.90;99.90
67890;DHT22;54685;52.082;5.426;2022-08-24T03:46:59;19.00;99.90
67890;DHT22;54685;52.082;5.426;2022-08-24T03:49:28;18.90;99.90
67890;DHT22;54685;52.082;5.426;2022-08-24T03:51:55;18.80;99.90
67890;DHT22;54685;52.082;5.426;2022-08-24T03:54:22;18.80;99.90
67890;DHT22;54685;52.082;5.426;2022-08-24T03:56:49;18.80;99.90
67890;DHT22;54685;52.082;5.426;2022-08-24T03:59:16;18.70;99.90
67890;DHT22;54685;52.082;5.426;2022-08-24T04:01:47;18.70;99.90
67890;DHT22;54685;52.082;5.426;2022-08-24T04:04:14;18.70;99.90
67890;DHT22;54685;52.082;5.426;2022-08-24T04:06:43;18.70;99.90
67890;DHT22;54685;52.082;5.426;2022-08-24T04:09:13;18.70;99.90
67890;DHT22;54685;52.082;5.426;2022-08-24T04:11:43;18.70;99.90
67890;DHT22;54685;52.082;5.426;2022-08-24T04:14:14;18.70;99.90
67890;DHT22;54685;52.082;5.426;2022-08-24T04:16:59;18.70;99.90
67890;DHT22;54685;52.082;5.426;2022-08-24T04:19:33;18.70;99.90
67890;DHT22;54685;52.082;5.426;2022-08-24T04:22:00;18.70;99.90
67890;DHT22;54685;52.082;5.426;2022-08-24T04:24:28;18.60;99.90
67890;DHT22;54685;52.082;5.426;2022-08-24T04:26:55;18.60;99.90
67890;DHT22;54685;52.082;5.426;2022-08-24T04:29:23;18.60;99.90
67890;DHT22;54685;52.082;5.426;2022-08-24T04:31:52;18.50;99.90
67890;DHT22;54685;52.082;5.426;2022-08-24T04:34:20;18.50;99.90
67890;DHT22;54685;52.082;5.426;2022-08-24T04:36:49;18.50;99.90
67890;DHT22;54685;52.082;5.426;2022-08-24T04:39:16;18.50;99.90
67890;DHT22;54685;52.082;5.426;2022-08-24T04:42:10;18.50;99.90
67890;DHT22;54685;52.082;5.426;2022-08-24T04:44:40;18.50;99.90
67890;DHT22;54685;52.082;5.426;2022-08-24T04:47:07;18.50;99.90
67890;DHT22;54685;52.082;5.426;2022-08-24T04:49:36;18.50;99.90
67890;DHT22;54685;52.082;5.426;2022-08-24T04:52:04;18.60;99.90
67890;DHT22;54685;52.082;5.426;2022-08-24T04:54:33;18.50;99.90
67890;DHT22;54685;52.082;5.426;2022-08-24T04:57:07;18.50;99.90
67890;DHT22;54685;52.082;5.426;2022-08-24T04:59:35;18.50;99.90
67890;DHT22;54685;52.082;5.426;2022-08-24T05:02:01;18.50;99.90
67890;DHT22;54685;52.082;5.426;2022-08-24T05:04:28;18.50;99.90
67890;DHT22;54685;52.082;5.426;2022-08-24T05:06:57;18.50;99.90
67890;DHT22;54685;52.082;5.426;2022-08-24T05:09:24;18.40;99.90
67890;DHT22;54685;52.082;5.426;2022-08-24T05:11:51;18.40;99.90
67890;DHT22;54685;52.082;5.426;2022-08-24T05:14:22;18.30;99.90
67890;DHT22;54685;52.082;5.426;2022-08-24T05:16:55;18.30;99.90
67890;DHT22;54685;52.082;5.426;2022-08-24T05:19:23;18.30;99.90
67890;DHT22;54685;52.082;5.426;2022-08-24T05:21:50;18.40;99.90
67890;DHT22;54685;52.082;5.426;2022-08-24T05:24:17;18.40;99.90
67890;DHT22;54685;52.082;5.426;2022-08-24T05:26:45;18.40;99.90
67890;DHT22;54685;52.082;5.426;2022-08-24T05:29:16;18.40;99.90
67890;DHT22;54685;52.082;5.426;2022-08-24T05:31:47;18.50;99.90
67890;DHT22;54685;52.082;5.426;2022-08-24T05:34:15;18.50;99.90
67890;DHT22;54685;52.082;5.426;2022-08-24T05:36:43;18.50;99.90
67890;DHT22;54685;52.082;5.426;2022-08-24T05:39:18;18.50;99.90
67890;DHT22;54685;52.082;5.426;2022-08-24T05:41:51;18.50;99.90
67890;DHT22;54685;52.082;5.426;2022-08-24T05:44:23;18.60;99.90
67890;DHT22;54685;52.082;5.426;2022-08-24T05:46:57;18.60;99.90
67890;DHT22;54685;52.082;5.426;2022-08-24T05:49:25;18.60;99.90
67890;DHT22;54685;52.082;5.426;2022-08-24T05:51:52;18.60;99.90
67890;DHT22;54685;52.082;5.426;2022-08-24T05:54:19;18.70;99.90
67890;DHT22;54685;52.082;5.426;2022-08-24T05:56:52;18.70;99.90
67890;DHT22;54685;52.082;5.426;2022-08-24T05:59:21;18.80;99.90
67890;DHT22;54685;52.082;5.426;2022-08-24T06:01:50;18.80;99.90
67890;DHT22;54685;52.082;5.426;2022-08-24T06:04:19;18.90;99.90
67890;DHT22;54685;52.082;5.426;2022-08-24T06:06:57;18.90;99.90
67890;DHT22;54685;52.082;5.426;2022-08-24T06:09:25;19.00;99.90
67890;DHT22;54685;52.082;5.426;2022-08-24T06:11:55;19.00;99.90
67890;DHT22;54685;52.082;5.426;2022-08-24T06:14:22;19.10;99.90
67890;DHT22;54685;52.082;5.426;2022-08-24T06:16:56;19.10;99.90
67890;DHT22;54685;52.082;5.426;2022-08-24T06:19:23;19.20;99.90
67890;DHT22;54685;52.082;5.426;2022-08-24T06:21:53;19.30;99.90
67890;DHT22;54685;52.082;5.426;2022-08-24T06:24:23;19.30;99.90
67890;DHT22;54685;52.082;5.426;2022-08-24T06:27:14;19.40;99.90
67890;DHT22;54685;52.082;5.426;2022-08-24T06:29:54;19.40;99.90
67890;DHT22;54685;52.082;5.426;2022-08-24T06:32:40;19.50;99.90
67890;DHT22;54685;52.082;5.426;2022-08-24T06:35:16;19.70;99.90
67890;DHT22;54685;52.082;5.426;2022-08-24T06:37:43;19.80;99.90
67890;DHT22;54685;52.082;5.426;2022-08-24T06:40:10;19.90;99.90
67890;DHT22;54685;52.082;5.426;2022-08-24T06:42:37;20.10;99.90
67890;DHT22;54685;52.082;5.426;2022-08-24T06:45:15;20.20;99.90
67890;DHT22;54685;52.082;5.426;2022-08-24T06:47:42;20.30;99.90
67890;DHT22;54685;52.082;5.426;2022-08-24T06:50:10;20.30;99.90
67890;DHT22;54685;52.082;5.426;2022-08-24T06:52:43;20.40;99.90
67890;DHT22;54685;52.082;5.426;2022-08-24T06:55:11;20.50;99.90
67890;DHT22;54685;52.082;5.426;2022-08-24T06:57:38;20.70;99.90
67890;DHT22;54685;52.082;5.426;2022-08-24T07:00:05;20.70;99.90
67890;DHT22;54685;52.082;5.426;2022-08-24T07:02:34;20.70;99.90
67890;DHT22;54685;52.082;5.426;2022-08-24T07:05:01;20.70;99.90
67890;DHT22;54685;52.082;5.426;2022-08-24T07:07:46;20.70;99.90
67890;DHT22;54685;52.082;5.426;2022-08-24T07:10:13;20.70;99.90
67890;DHT22;54685;52.082;5.426;2022-08-24T07:12:40;20.80;99.90
67890;DHT22;54685;52.082;5.426;2022-08-24T07:15:07;20.90;99.90
67890;DHT22;54685;52.082;5.426;2022-08-24T07:17:44;20.90;99.90
67890;DHT22;54685;52.082;5.426;2022-08-24T07:20:11;21.00;99.90
67890;DHT22;54685;52.082;5.426;2022-08-24T07:23:05;21.10;99.90
67890;DHT22;54685;52.082;5.426;2022-08-24T07:25:33;21.20;99.90
67890;DHT22;54685;52.082;5.426;2022-08-24T07:28:01;21.20;99.90
67890;DHT22;54685;52.082;5.426;2022-08-24T07:30:33;21.30;99.90
67890;DHT22;54685;52.082;5.426;2022-08-24T07:33:00;21.40;99.90
67890;DHT22;54685;52.082;5.426;2022-08-24T07:35:29;21.50;99.90
67890;DHT22;54685;52.082;5.426;2022-08-24T07:37:59;21.60;99.90
67890;DHT22;54685;52.082;5.426;2022-08-24T07:40:27;21.60;99.90
67890;DHT22;54685;52.082;5.426;2022-08-24T07:42:58;21.70;99.90
67890;DHT22;54685;52.082;5.426;2022-08-24T07:45:25;21.70;99.90
67890;DHT22;54685;52.082;5.426;2022-08-24T07:47:54;21.80;99.90
67890;DHT22;54685;52.082;5.426;2022-08-24T07:50:44;21.80;99.90
67890;DHT22;54685;52.082;5.426;2022-08-24T07:53:14;22.10;99.90
67890;DHT22;54685;52.082;5.426;2022-08-24T07:55:54;22.10;99.90
67890;DHT22;54685;52.082;5.426;2022-08-24T07:58:23;22.20;99.90
67890;DHT22;54685;52.082;5.426;2022-08-24T08:00:50;22.30;99.90
67890;DHT22;54685;52.082;5.426;2022-08-24T08:03:18;22.40;99.90
67890;DHT22;54685;52.082;5.426;2022-08-24T08:05:46;22.50;99.90
67890;DHT22;54685;52.082;5.426;2022-08-24T08:08:14;22.60;99.90
67890;DHT22;54685;52.082;5.426;2022-08-24T08:10:42;22.70;99.90
67890;DHT22;54685;52.082;5.426;2022-08-24T08:13:09;22.70;99.90
67890;DHT22;54685;52.082;5.426;2022-08-24T08:15:36;22.80;99.90
67890;DHT22;54685;52.082;5.426;2022-08-24T08:18:07;22.80;99.90
67890;DHT22;54685;52.082;5.426;2022-08-24T08:20:38;22.90;99.90
67890;DHT22;54685;52.082;5.426;2022-08-24T08:23:09;23.00;99.90
67890;DHT22;54685;52.082;5.426;2022-08-24T08:26:03;23.10;99.90
67890;DHT22;54685;52.082;5.426;2022-08-24T08:28:52;23.20;99.90
67890;DHT22;54685;52.082;5.426;2022-08-24T08:31:19;23.20;99.90
67890;DHT22;54685;52.082;5.426;2022-08-24T08:33:46;23.40;99.90
67890;DHT22;54685;52.082;5.426;2022-08-24T08:36:13;23.40;99.90
67890;DHT22;54685;52.082;5.426;2022-08-24T08:38:47;23.50;99.90
67890;DHT22;54685;52.082;5.426;2022-08-24T08:44:18;23.60;99.90
67890;DHT22;54685;52.082;5.426;2022-08-24T08:56:05;24.10;99.90
67890;DHT22;54685;52.082;5.426;2022-08-24T09:07:21;24.50;99.90
67890;DHT22;54685;52.082;5.426;2022-08-24T09:13:31;24.90;99.90
67890;DHT22;54685;52.082;5.426;2022-08-24T09:24:35;26.50;99.90
67890;DHT22;54685;52.082;5.426;2022-08-24T09:33:04;27.80;99.90
67890;DHT22;54685;52.082;5.426;2022-08-24T09:38:40;28.50;99.30
67890;DHT22;54685;52.082;5.426;2022-08-24T09:52:42;29.90;92.70
67890;DHT22;54685;52.082;5.426;2022-08-24T10:01:24;31.00;66.60
67890;DHT22;54685;52.082;5.426;2022-08-24T10:18:03;31.40;64.80
67890;DHT22;54685;52.082;5.426;2022-08-24T10:28:52;31.80;63.00
67890;DHT22;54685;52.082;5.426;2022-08-24T10:42:39;32.30;58.30
67890;DHT22;54685;52.082;5.426;2022-08-24T10:53:55;32.90;50.90
67890;DHT22;54685;52.082;5.426;2022-08-24T10:56:42;32.60;52.00
67890;DHT22;54685;52.082;5.426;2022-08-24T10:59:22;32.70;53.80
67890;DHT22;54685;52.082;5.426;2022-08-24T11:04:39;33.00;51.80
67890;DHT22;54685;52.082;5.426;2022-08-24T11:07:14;33.20;52.20
67890;DHT22;54685;52.082;5.426;2022-08-24T11:09:57;33.40;50.30
67890;DHT22;54685;52.082;5.426;2022-08-24T11:15:01;33.30;49.70
67890;DHT22;54685;52.082;5.426;2022-08-24T11:17:30;33.10;49.30
67890;DHT22;54685;52.082;5.426;2022-08-24T11:19:57;33.00;48.20
67890;DHT22;54685;52.082;5.426;2022-08-24T11:23:07;33.00;49.80
67890;DHT22;54685;52.082;5.426;2022-08-24T11:25:36;33.30;49.50
67890;DHT22;54685;52.082;5.426;2022-08-24T11:31:00;33.30;47.80
67890;DHT22;54685;52.082;5.426;2022-08-24T11:33:44;33.50;49.00
67890;DHT22;54685;52.082;5.426;2022-08-24T11:36:18;33.50;48.30
67890;DHT22;54685;52.082;5.426;2022-08-24T11:38:47;33.10;46.60
67890;DHT22;54685;52.082;5.426;2022-08-24T11:41:24;32.70;48.70
67890;DHT22;54685;52.082;5.426;2022-08-24T11:46:33;32.20;50.90
67890;DHT22;54685;52.082;5.426;2022-08-24T11:54:51;32.60;49.40
67890;DHT22;54685;52.082;5.426;2022-08-24T11:57:46;32.50;50.50
67890;DHT22;54685;52.082;5.426;2022-08-24T12:00:21;32.10;51.00
67890;DHT22;54685;52.082;5.426;2022-08-24T12:03:23;31.80;50.50
67890;DHT22;54685;52.082;5.426;2022-08-24T12:06:23;31.90;51.60
67890;DHT22;54685;52.082;5.426;2022-08-24T12:12:07;31.90;48.80
67890;DHT22;54685;52.082;5.426;2022-08-24T12:17:40;32.00;52.60
67890;DHT22;54685;52.082;5.426;2022-08-24T12:23:10;32.20;48.40
67890;DHT22;54685;52.082;5.426;2022-08-24T12:25:40;32.00;50.40
67890;DHT22;54685;52.082;5.426;2022-08-24T12:28:36;31.90;49.10
67890;DHT22;54685;52.082;5.426;2022-08-24T12:37:22;31.00;54.30
67890;DHT22;54685;52.082;5.426;2022-08-24T12:40:21;31.00;55.70
67890;DHT22;54685;52.082;5.426;2022-08-24T12:42:50;31.00;54.00
67890;DHT22;54685;52.082;5.426;2022-08-24T12:45:21;30.90;57.00
67890;DHT22;54685;52.082;5.426;2022-08-24T13:01:55;31.00;57.20
67890;DHT22;54685;52.082;5.426;2022-08-24T13:04:36;31.20;55.10
67890;DHT22;54685;52.082;5.426;2022-08-24T13:07:28;31.30;58.20
67890;DHT22;54685;52.082;5.426;2022-08-24T13:33:34;31.00;57.10
67890;DHT22;54685;52.082;5.426;2022-08-24T13:39:10;31.40;52.60
67890;DHT22;54685;52.082;5.426;2022-08-24T13:55:35;31.60;51.80
67890;DHT22;54685;52.082;5.426;2022-08-24T13:58:22;31.50;51.50
67890;DHT22;54685;52.082;5.426;2022-08-24T14:00:58;31.70;51.90
67890;DHT22;54685;52.082;5.426;2022-08-24T14:03:43;31.60;48.90
67890;DHT22;54685;52.082;5.426;2022-08-24T14:06:32;31.60;52.40
67890;DHT22;54685;52.082;5.426;2022-08-24T14:14:53;31.50;51.30
67890;DHT22;54685;52.082;5.426;2022-08-24T14:17:18;31.40;52.60
67890;DHT22;54685;52.082;5.426;2022-08-24T14:23:33;31.20;57.70
67890;DHT22;54685;52.082;5.426;2022-08-24T14:39:57;31.50;52.20
67890;DHT22;54685;52.082;5.426;2022-08-24T14:42:35;31.20;53.40
67890;DHT22;54685;52.082;5.426;2022-08-24T14:57:20;30.50;58.90
67890;DHT22;54685;52.082;5.426;2022-08-24T15:00:03;30.50;58.00
67890;DHT22;54685;52.082;5.426;2022-08-24T15:08:04;30.50;60.90
67890;DHT22;54685;52.082;5.426;2022-08-24T15:10:43;30.50;58.40
67890;DHT22;54685;52.082;5.426;2022-08-24T15:13:29;30.50;59.40
67890;DHT22;54685;52.082;5.426;2022-08-24T15:16:02;30.50;58.10
67890;DHT22;54685;52.082;5.426;2022-08-24T15:18:42;30.50;56.30
67890;DHT22;54685;52.082;5.426;2022-08-24T15:24:16;30.40;56.30
67890;DHT22;54685;52.082;5.426;2022-08-24T15:29:30;30.20;57.40
67890;DHT22;54685;52.082;5.426;2022-08-24T15:32:11;30.30;57.70
67890;DHT22;54685;52.082;5.426;2022-08-24T15:34:42;30.40;55.00
67890;DHT22;54685;52.082;5.426;2022-08-24T15:37:32;30.40;56.00
67890;DHT22;54685;52.082;5.426;2022-08-24T15:40:00;30.40;56.70
67890;DHT22;54685;52.082;5.426;2022-08-24T15:42:33;30.40;56.70
67890;DHT22;54685;52.082;5.426;2022-08-24T15:45:03;30.50;56.00
67890;DHT22;54685;52.082;5.426;2022-08-24T15:47:33;30.50;56.20
67890;DHT22;54685;52.082;5.426;2022-08-24T15:50:04;30.40;55.50
67890;DHT22;54685;52.082;5.426;2022-08-24T15:52:49;30.40;55.70
67890;DHT22;54685;52.082;5.426;2022-08-24T15:55:43;30.40;54.30
67890;DHT22;54685;52.082;5.426;2022-08-24T15:58:31;30.30;54.30
67890;DHT22;54685;52.082;5.426;2022-08-24T16:04:07;30.30;54.70
67890;DHT22;54685;52.082;5.426;2022-08-24T16:06:39;30.20;56.20
67890;DHT22;54685;52.082;5.426;2022-08-24T16:12:04;30.10;59.80
67890;DHT22;54685;52.082;5.426;2022-08-24T16:14:53;30.10;66.50
67890;DHT22;54685;52.082;5.426;2022-08-24T16:17:32;30.00;68.80
67890;DHT22;54685;52.082;5.426;2022-08-24T16:20:07;30.00;59.00
67890;DHT22;54685;52.082;5.426;2022-08-24T16:22:39;30.00;56.70
67890;DHT22;54685;52.082;5.426;2022-08-24T16:25:26;30.00;56.40
67890;DHT22;54685;52.082;5.426;2022-08-24T16:28:31;30.00;59.80
67890;DHT22;54685;52.082;5.426;2022-08-24T16:31:00;29.90;65.60
67890;DHT22;54685;52.082;5.426;2022-08-24T16:33:43;29.80;69.50
67890;DHT22;54685;52.082;5.426;2022-08-24T16:36:14;29.70;71.60
67890;DHT22;54685;52.082;5.426;2022-08-24T16:38:45;29.60;66.80
67890;DHT22;54685;52.082;5.426;2022-08-24T16:41:15;29.60;70.60
67890;DHT22;54685;52.082;5.426;2022-08-24T16:43:43;29.50;69.60
67890;DHT22;54685;52.082;5.426;2022-08-24T16:46:16;29.50;69.10
67890;DHT22;54685;52.082;5.426;2022-08-24T16:48:44;29.50;67.40
67890;DHT22;54685;52.082;5.426;2022-08-24T16:51:11;29.50;68.40
67890;DHT22;54685;52.082;5.426;2022-08-24T16:53:37;29.50;67.50
67890;DHT22;54685;52.082;5.426;2022-08-24T16:56:04;29.50;69.20
67890;DHT22;54685;52.082;5.426;2022-08-24T16:58:34;29.50;71.10
67890;DHT22;54685;52.082;5.426;2022-08-24T17:01:03;29.50;73.70
67890;DHT22;54685;52.082;5.426;2022-08-24T17:03:31;29.40;77.10
67890;DHT22;54685;52.082;5.426;2022-08-24T17:06:00;29.30;78.20
67890;DHT22;54685;52.082;5.426;2022-08-24T17:08:27;29.30;78.30
67890;DHT22;54685;52.082;5.426;2022-08-24T17:10:54;29.30;78.80
67890;DHT22;54685;52.082;5.426;2022-08-24T17:13:21;29.20;79.00
67890;DHT22;54685;52.082;5.426;2022-08-24T17:16:11;29.20;78.90
67890;DHT22;54685;52.082;5.426;2022-08-24T17:18:38;29.10;79.40
67890;DHT22;54685;52.082;5.426;2022-08-24T17:21:06;29.10;80.60
67890;DHT22;54685;52.082;5.426;2022-08-24T17:23:34;29.00;80.40
67890;DHT22;54685;52.082;5.426;2022-08-24T17:26:02;28.90;80.70
67890;DHT22;54685;52.082;5.426;2022-08-24T17:28:30;28.90;82.50
67890;DHT22;54685;52.082;5.426;2022-08-24T17:30:57;28.80;83.20
67890;DHT22;54685;52.082;5.426;2022-08-24T17:33:24;28.70;84.00
67890;DHT22;54685;52.082;5.426;2022-08-24T17:35:53;28.70;84.90
67890;DHT22;54685;52.082;5.426;2022-08-24T17:38:20;28.60;85.60
67890;DHT22;54685;52.082;5.426;2022-08-24T17:40:48;28.60;84.90
67890;DHT22;54685;52.082;5.426;2022-08-24T17:43:15;28.50;85.10
67890;DHT22;54685;52.082;5.426;2022-08-24T17:45:42;28.40;85.50
67890;DHT22;54685;52.082;5.426;2022-08-24T17:48:16;28.30;86.90
67890;DHT22;54685;52.082;5.426;2022-08-24T17:50:45;28.30;87.20
67890;DHT22;54685;52.082;5.426;2022-08-24T17:53:12;28.20;88.00
67890;DHT22;54685;52.082;5.426;2022-08-24T17:55:39;28.10;88.60
67890;DHT22;54685;52.082;5.426;2022-08-24T17:58:06;28.10;89.40
67890;DHT22;54685;52.082;5.426;2022-08-24T18:00:32;28.00;88.80
67890;DHT22;54685;52.082;5.426;2022-08-24T18:03:00;28.00;89.30
67890;DHT22;54685;52.082;5.426;2022-08-24T18:05:29;27.90;90.10
67890;DHT22;54685;52.082;5.426;2022-08-24T18:07:56;27.80;89.80
67890;DHT22;54685;52.082;5.426;2022-08-24T18:10:26;27.70;90.60
67890;DHT22;54685;52.082;5.426;2022-08-24T18:12:56;27.70;91.10
67890;DHT22;54685;52.082;5.426;2022-08-24T18:15:24;27.70;90.80
67890;DHT22;54685;52.082;5.426;2022-08-24T18:18:04;27.60;91.90
67890;DHT22;54685;52.082;5.426;2022-08-24T18:20:38;27.50;92.50
67890;DHT22;54685;52.082;5.426;2022-08-24T18:23:05;27.40;92.20
67890;DHT22;54685;52.082;5.426;2022-08-24T18:25:45;27.40;92.30
67890;DHT22;54685;52.082;5.426;2022-08-24T18:28:13;27.40;92.70
67890;DHT22;54685;52.082;5.426;2022-08-24T18:30:41;27.30;92.70
67890;DHT22;54685;52.082;5.426;2022-08-24T18:33:09;27.20;93.00
67890;DHT22;54685;52.082;5.426;2022-08-24T18:35:36;27.20;93.00
67890;DHT22;54685;52.082;5.426;2022-08-24T18:38:02;27.10;93.40
67890;DHT22;54685;52.082;5.426;2022-08-24T18:40:29;27.10;93.70
67890;DHT22;54685;52.082;5.426;2022-08-24T18:43:00;27.10;94.20
67890;DHT22;54685;52.082;5.426;2022-08-24T18:45:30;27.00;94.60
67890;DHT22;54685;52.082;5.426;2022-08-24T18:47:58;26.90;95.30
67890;DHT22;54685;52.082;5.426;2022-08-24T18:50:25;26.90;95.00
67890;DHT22;54685;52.082;5.426;2022-08-24T18:52:56;26.80;95.70
67890;DHT22;54685;52.082;5.426;2022-08-24T18:55:23;26.70;96.10
67890;DHT22;54685;52.082;5.426;2022-08-24T18:57:50;26.70;96.10
67890;DHT22;54685;52.082;5.426;2022-08-24T19:00:17;26.70;95.80
67890;DHT22;54685;52.082;5.426;2022-08-24T19:02:47;26.60;96.10
67890;DHT22;54685;52.082;5.426;2022-08-24T19:05:18;26.60;96.50
67890;DHT22;54685;52.082;5.426;2022-08-24T19:07:49;26.50;97.40
67890;DHT22;54685;52.082;5.426;2022-08-24T19:10:22;26.40;97.80
67890;DHT22;54685;52.082;5.426;2022-08-24T19:12:58;26.40;98.30
67890;DHT22;54685;52.082;5.426;2022-08-24T19:15:26;26.30;99.20
67890;DHT22;54685;52.082;5.426;2022-08-24T19:18:06;26.20;99.10
67890;DHT22;54685;52.082;5.426;2022-08-24T19:20:34;26.10;99.80
67890;DHT22;54685;52.082;5.426;2022-08-24T19:23:06;26.10;99.90
67890;DHT22;54685;52.082;5.426;2022-08-24T19:25:34;26.00;99.90
67890;DHT22;54685;52.082;5.426;2022-08-24T19:28:02;25.90;99.90
67890;DHT22;54685;52.082;5.426;2022-08-24T19:30:29;25.90;99.90
67890;DHT22;54685;52.082;5.426;2022-08-24T19:32:56;25.80;99.90
67890;DHT22;54685;52.082;5.426;2022-08-24T19:35:23;25.80;99.90
67890;DHT22;54685;52.082;5.426;2022-08-24T19:37:50;25.70;99.90
67890;DHT22;54685;52.082;5.426;2022-08-24T19:40:18;25.70;99.90
67890;DHT22;54685;52.082;5.426;2022-08-24T19:42:48;25.60;99.90
67890;DHT22;54685;52.082;5.426;2022-08-24T19:45:22;25.50;99.90
67890;DHT22;54685;52.082;5.426;2022-08-24T19:48:10;25.50;99.90
67890;DHT22;54685;52.082;5.426;2022-08-24T19:50:37;25.40;99.90
67890;DHT22;54685;52.082;5.426;2022-08-24T19:53:05;25.30;99.90
67890;DHT22;54685;52.082;5.426;2022-08-24T19:55:32;25.30;99.90
67890;DHT22;54685;52.082;5.426;2022-08-24T19:58:18;25.30;99.90
67890;DHT22;54685;52.082;5.426;2022-08-24T20:01:03;25.20;99.90
67890;DHT22;54685;52.082;5.426;2022-08-24T20:03:30;25.20;99.90